Time;durP1;ratioP1;P1;durP2;ratioP2;P2;SDS_P1;SDS_P2;PMS_P1;PMS_P2;Temp;Humidity;BMP_temperature;BMP_pressure;BME280_temperature;BME280_humidity;BME280_pressure;Samples;Min_cycle;Max_cycle;Signal;HPM_P1;HPM_P2
2021/10/21 00:02:17;;;;;;;4.72;3.05;;;14.90;99.90;;;;;;5085927;28;20505;-43
2021/10/21 00:04:42;;;;;;;3.53;2.47;;;14.90;99.90;;;;;;5086964;28;20065;-42
2021/10/21 00:07:09;;;;;;;4.00;3.10;;;15.00;99.90;;;;;;5086116;28;20024;-43
2021/10/21 00:09:34;;;;;;;5.63;3.20;;;14.90;99.90;;;;;;5087188;28;20641;-43
2021/10/21 00:12:03;;;;;;;4.78;3.28;;;15.00;99.90;;;;;;5086171;28;20032;-43
2021/10/21 00:14:29;;;;;;;5.32;3.58;;;15.00;99.90;;;;;;5086350;28;20052;-43
2021/10/21 00:17:07;;;;;;;5.25;3.92;;;15.00;99.90;;;;;;5086301;28;20028;-43
2021/10/21 00:19:32;;;;;;;8.20;4.45;;;15.00;99.90;;;;;;5087125;28;20055;-42
2021/10/21 00:21:58;;;;;;;6.45;4.50;;;15.00;99.90;;;;;;5086147;28;20062;-42
2021/10/21 00:24:23;;;;;;;7.80;4.78;;;15.00;99.90;;;;;;5087091;28;20154;-42
2021/10/21 00:26:49;;;;;;;8.98;4.88;;;15.00;99.90;;;;;;5086199;28;20440;-43
2021/10/21 00:29:14;;;;;;;6.50;4.00;;;15.00;99.90;;;;;;5086155;28;20497;-42
2021/10/21 00:31:40;;;;;;;7.38;4.35;;;15.00;99.90;;;;;;5086535;28;20523;-42
2021/10/21 00:34:05;;;;;;;4.65;2.78;;;14.90;99.90;;;;;;5085875;28;20035;-43
2021/10/21 00:36:31;;;;;;;3.72;2.80;;;15.00;99.90;;;;;;5086495;28;20128;-43
2021/10/21 00:38:57;;;;;;;4.05;2.95;;;14.90;99.90;;;;;;5085973;28;20019;-43
2021/10/21 00:41:23;;;;;;;3.70;2.85;;;14.90;99.90;;;;;;5086543;28;20510;-42
2021/10/21 00:43:49;;;;;;;4.68;2.88;;;14.90;99.90;;;;;;5086017;28;20034;-44
2021/10/21 00:46:15;;;;;;;6.93;3.03;;;14.90;99.90;;;;;;5086223;28;20023;-45
2021/10/21 00:48:42;;;;;;;5.50;3.30;;;14.90;99.90;;;;;;5086470;28;20569;-43
2021/10/21 00:51:14;;;;;;;4.10;2.60;;;14.90;99.90;;;;;;5085157;28;20024;-41
2021/10/21 00:53:40;;;;;;;3.90;2.92;;;15.00;99.90;;;;;;5086426;28;20124;-44
2021/10/21 00:56:08;;;;;;;5.80;3.50;;;15.00;99.90;;;;;;5085579;28;20115;-42
2021/10/21 00:58:34;;;;;;;6.28;4.35;;;15.00;99.90;;;;;;5086060;28;20514;-43
2021/10/21 01:01:00;;;;;;;5.28;3.60;;;15.00;99.90;;;;;;5085811;28;20482;-43
2021/10/21 01:03:26;;;;;;;5.13;3.58;;;15.00;99.90;;;;;;5089153;28;20406;-44
2021/10/21 01:05:52;;;;;;;3.53;3.10;;;15.00;99.90;;;;;;5089902;28;20031;-41
2021/10/21 01:08:18;;;;;;;5.93;3.20;;;15.00;99.90;;;;;;5090323;28;20019;-43
2021/10/21 01:10:44;;;;;;;3.08;2.78;;;15.10;99.90;;;;;;5090192;28;20077;-42
2021/10/21 01:13:10;;;;;;;4.47;3.20;;;15.10;99.90;;;;;;5089565;28;20472;-42
2021/10/21 01:15:35;;;;;;;4.53;2.83;;;15.10;99.90;;;;;;5089945;28;20085;-43
2021/10/21 01:18:02;;;;;;;3.13;2.45;;;15.10;99.90;;;;;;5089746;28;20063;-43
2021/10/21 01:20:31;;;;;;;3.58;2.28;;;15.10;99.90;;;;;;5089851;28;20020;-43
2021/10/21 01:22:57;;;;;;;4.72;2.08;;;15.00;99.90;;;;;;5089700;28;20024;-43
2021/10/21 01:25:22;;;;;;;4.72;2.03;;;15.00;99.90;;;;;;5089610;28;20387;-43
2021/10/21 01:27:49;;;;;;;3.50;1.67;;;15.00;99.90;;;;;;5089498;28;20115;-43
2021/10/21 01:30:23;;;;;;;3.33;1.60;;;15.00;99.90;;;;;;5089337;28;20027;-43
2021/10/21 01:32:50;;;;;;;3.97;1.80;;;15.00;99.90;;;;;;5089945;28;20099;-43
2021/10/21 01:35:15;;;;;;;4.88;1.80;;;15.00;99.90;;;;;;5089363;28;20023;-42
2021/10/21 01:37:41;;;;;;;2.60;1.60;;;15.00;99.90;;;;;;5089925;28;20020;-42
2021/10/21 01:40:10;;;;;;;1.92;1.50;;;15.00;99.90;;;;;;5088338;28;20077;-42
2021/10/21 01:42:38;;;;;;;3.05;1.33;;;14.90;99.90;;;;;;5089637;28;20783;-42
2021/10/21 01:45:20;;;;;;;3.75;1.10;;;14.90;99.90;;;;;;5089896;28;20379;-42
2021/10/21 01:47:46;;;;;;;2.05;0.95;;;14.80;99.90;;;;;;5089746;28;20047;-42
2021/10/21 01:50:17;;;;;;;3.42;0.70;;;14.60;99.90;;;;;;5088737;28;20100;-42
2021/10/21 01:52:42;;;;;;;1.70;0.50;;;14.40;99.90;;;;;;5088911;28;20020;-43
2021/10/21 01:55:09;;;;;;;1.65;0.50;;;14.20;99.90;;;;;;5088881;28;20495;-42
2021/10/21 01:57:36;;;;;;;1.67;0.65;;;14.10;99.90;;;;;;5089544;28;20487;-42
2021/10/21 02:00:06;;;;;;;2.83;0.80;;;14.00;99.90;;;;;;5088781;28;20020;-43
2021/10/21 02:02:32;;;;;;;2.35;0.65;;;13.90;99.90;;;;;;5089948;28;20448;-42
2021/10/21 02:05:00;;;;;;;2.38;0.60;;;13.70;99.90;;;;;;5088353;28;20523;-42
2021/10/21 02:07:25;;;;;;;3.78;1.00;;;13.50;99.90;;;;;;5088606;28;20036;-39
2021/10/21 02:09:51;;;;;;;2.70;0.82;;;13.30;99.90;;;;;;5089173;28;20025;-42
2021/10/21 02:12:16;;;;;;;3.50;1.15;;;13.10;99.90;;;;;;5088637;28;20449;-42
2021/10/21 02:14:42;;;;;;;2.47;0.90;;;13.00;99.90;;;;;;5088991;28;20016;-43
2021/10/21 02:17:07;;;;;;;3.15;0.80;;;12.90;99.90;;;;;;5088302;28;20040;-43
2021/10/21 02:19:34;;;;;;;2.35;0.80;;;12.80;99.90;;;;;;5089372;28;20024;-43
2021/10/21 02:22:00;;;;;;;3.00;0.80;;;12.80;99.90;;;;;;5088098;28;20056;-43
2021/10/21 02:24:25;;;;;;;1.65;0.75;;;12.70;99.90;;;;;;5088905;28;20113;-43
2021/10/21 02:26:51;;;;;;;2.63;1.08;;;12.70;99.90;;;;;;5088538;28;20024;-42
2021/10/21 02:29:16;;;;;;;2.67;1.52;;;12.70;99.90;;;;;;5088365;28;20038;-42
2021/10/21 02:31:42;;;;;;;2.40;0.70;;;12.70;99.90;;;;;;5088903;28;20028;-42
2021/10/21 02:34:07;;;;;;;1.08;0.60;;;12.60;99.90;;;;;;5088314;28;20024;-42
2021/10/21 02:36:33;;;;;;;2.58;0.80;;;12.60;99.90;;;;;;5088317;28;20864;-42
2021/10/21 02:39:00;;;;;;;2.80;0.90;;;12.60;99.90;;;;;;5088373;28;20028;-42
2021/10/21 02:41:26;;;;;;;2.45;0.88;;;12.60;99.90;;;;;;5088424;28;20051;-42
2021/10/21 02:43:54;;;;;;;4.55;0.85;;;12.60;99.90;;;;;;5088094;28;20493;-42
2021/10/21 02:46:20;;;;;;;4.78;0.70;;;12.70;99.90;;;;;;5088522;28;20031;-42
2021/10/21 02:48:46;;;;;;;1.70;0.60;;;12.70;99.90;;;;;;5088192;28;20016;-42
2021/10/21 02:51:11;;;;;;;4.60;0.80;;;12.80;99.90;;;;;;5087795;28;20024;-42
2021/10/21 02:53:37;;;;;;;3.33;0.95;;;12.80;99.90;;;;;;5088182;28;20040;-42
2021/10/21 02:56:03;;;;;;;4.18;1.48;;;12.80;99.90;;;;;;5087732;28;20048;-43
2021/10/21 02:58:28;;;;;;;4.03;0.68;;;12.90;99.90;;;;;;5087966;28;20020;-42
2021/10/21 03:01:00;;;;;;;5.00;0.90;;;13.00;99.90;;;;;;5088066;28;20119;-42
2021/10/21 03:03:25;;;;;;;9.02;0.82;;;13.00;99.90;;;;;;5087736;28;20069;-42
2021/10/21 03:05:51;;;;;;;2.38;0.88;;;13.00;99.90;;;;;;5087256;28;20028;-42
2021/10/21 03:08:16;;;;;;;4.05;0.88;;;13.10;99.90;;;;;;5088144;28;20023;-42
2021/10/21 03:10:42;;;;;;;3.10;0.90;;;13.10;99.90;;;;;;5087980;28;20016;-42
2021/10/21 03:13:07;;;;;;;7.30;1.25;;;13.10;99.90;;;;;;5087025;28;20024;-42
2021/10/21 03:15:33;;;;;;;5.22;1.10;;;13.20;99.90;;;;;;5088579;28;20365;-42
2021/10/21 03:17:58;;;;;;;3.63;0.70;;;13.20;99.90;;;;;;5086699;28;20030;-42
2021/10/21 03:20:24;;;;;;;1.92;0.57;;;13.20;99.90;;;;;;5087655;28;20430;-42
2021/10/21 03:22:50;;;;;;;3.20;0.90;;;13.20;99.90;;;;;;5088123;28;20458;-41
2021/10/21 03:25:16;;;;;;;2.35;0.60;;;13.20;99.90;;;;;;5086768;28;20052;-42
2021/10/21 03:27:42;;;;;;;1.83;0.70;;;13.10;99.90;;;;;;5087955;28;20028;-41
2021/10/21 03:30:09;;;;;;;4.03;0.80;;;13.00;99.90;;;;;;5085520;28;20012;-42
2021/10/21 03:32:35;;;;;;;2.42;0.95;;;13.00;99.90;;;;;;5087561;28;20186;-42
2021/10/21 03:35:00;;;;;;;2.03;0.65;;;13.00;99.90;;;;;;5086625;28;20534;-41
2021/10/21 03:37:27;;;;;;;2.22;0.70;;;12.90;99.90;;;;;;5087734;28;20048;-42
2021/10/21 03:39:53;;;;;;;7.05;1.90;;;12.80;99.90;;;;;;5086682;28;20472;-43
2021/10/21 03:42:22;;;;;;;4.43;0.68;;;12.80;99.90;;;;;;5087181;28;20086;-43
2021/10/21 03:44:48;;;;;;;3.17;0.90;;;12.80;99.90;;;;;;5087651;28;20421;-42
2021/10/21 03:47:14;;;;;;;5.00;1.45;;;12.70;99.90;;;;;;5086371;28;20020;-43
2021/10/21 03:49:40;;;;;;;5.63;0.90;;;12.80;99.90;;;;;;5087456;28;20375;-43
2021/10/21 03:52:05;;;;;;;2.75;0.90;;;12.80;99.90;;;;;;5086486;28;20020;-42
2021/10/21 03:54:32;;;;;;;1.83;0.73;;;12.80;99.90;;;;;;5086895;28;20119;-42
2021/10/21 03:56:57;;;;;;;3.35;0.80;;;12.80;99.90;;;;;;5087227;28;20040;-42
2021/10/21 03:59:23;;;;;;;2.30;0.73;;;12.80;99.90;;;;;;5086284;28;20035;-43
2021/10/21 04:01:48;;;;;;;2.85;0.77;;;12.80;99.90;;;;;;5087355;28;20024;-42
2021/10/21 04:04:14;;;;;;;4.82;1.08;;;12.80;99.90;;;;;;5086451;28;20016;-42
2021/10/21 04:06:43;;;;;;;3.85;0.80;;;12.90;99.90;;;;;;5087287;28;20032;-43
2021/10/21 04:09:09;;;;;;;4.60;0.70;;;12.90;99.90;;;;;;5087082;28;20024;-42
2021/10/21 04:11:34;;;;;;;3.58;0.90;;;12.90;99.90;;;;;;5087879;28;20387;-43
2021/10/21 04:14:00;;;;;;;2.30;0.70;;;12.90;99.90;;;;;;5087411;28;20128;-43
2021/10/21 04:16:26;;;;;;;4.72;1.00;;;12.90;99.90;;;;;;5087022;28;20055;-43
2021/10/21 04:18:52;;;;;;;4.00;1.27;;;12.80;99.90;;;;;;5087175;28;20032;-43
2021/10/21 04:21:17;;;;;;;3.45;0.70;;;12.80;99.90;;;;;;5086580;28;20066;-43
2021/10/21 04:23:43;;;;;;;4.45;0.90;;;12.80;99.90;;;;;;5087463;28;20035;-42
2021/10/21 04:26:09;;;;;;;2.92;1.15;;;12.70;99.90;;;;;;5086023;28;20080;-43
2021/10/21 04:28:35;;;;;;;2.15;0.80;;;12.70;99.90;;;;;;5086170;28;20403;-42
2021/10/21 04:31:00;;;;;;;3.38;0.85;;;12.60;99.90;;;;;;5086093;28;20023;-42
2021/10/21 04:33:26;;;;;;;1.92;0.60;;;12.60;99.90;;;;;;5086126;28;20387;-42
2021/10/21 04:35:54;;;;;;;2.47;0.60;;;12.60;99.90;;;;;;5086095;28;20034;-43
2021/10/21 04:38:20;;;;;;;2.60;0.68;;;12.60;99.90;;;;;;5090003;28;20379;-43
2021/10/21 04:40:45;;;;;;;3.13;0.75;;;12.60;99.90;;;;;;5090570;28;20028;-43
2021/10/21 04:43:11;;;;;;;3.05;0.68;;;12.60;99.90;;;;;;5089874;28;20023;-42
2021/10/21 04:45:37;;;;;;;2.72;0.90;;;12.60;99.90;;;;;;5090357;28;20200;-42
2021/10/21 04:48:02;;;;;;;2.63;1.00;;;12.60;99.90;;;;;;5090376;28;20031;-42
2021/10/21 04:50:28;;;;;;;5.45;1.00;;;12.50;99.90;;;;;;5090202;28;20020;-43
2021/10/21 04:52:56;;;;;;;2.08;0.73;;;12.60;99.90;;;;;;5090549;28;20031;-42
2021/10/21 04:55:23;;;;;;;4.22;0.80;;;12.60;99.90;;;;;;5089660;28;20059;-42
2021/10/21 04:57:50;;;;;;;2.47;0.90;;;12.60;99.90;;;;;;5090295;28;20379;-43
2021/10/21 05:00:19;;;;;;;3.13;0.98;;;12.60;99.90;;;;;;5090586;28;20066;-43
2021/10/21 05:02:46;;;;;;;2.40;0.70;;;12.60;99.90;;;;;;5089854;28;20107;-42
2021/10/21 05:05:13;;;;;;;2.00;0.90;;;12.60;99.90;;;;;;5069646;28;20499;-42
2021/10/21 05:07:39;;;;;;;3.15;0.98;;;12.60;99.90;;;;;;5084155;28;20054;-43
2021/10/21 05:10:05;;;;;;;4.93;1.08;;;12.60;99.90;;;;;;5090230;28;20058;-43
2021/10/21 05:12:31;;;;;;;3.90;0.80;;;12.60;99.90;;;;;;5089893;28;20035;-43
2021/10/21 05:14:57;;;;;;;2.58;0.88;;;12.60;99.90;;;;;;5090100;28;20024;-43
2021/10/21 05:17:23;;;;;;;2.65;0.80;;;12.60;99.90;;;;;;5088856;28;20036;-43
2021/10/21 05:19:49;;;;;;;3.47;1.10;;;12.70;99.90;;;;;;5090211;28;20392;-43
2021/10/21 05:22:14;;;;;;;2.33;0.75;;;12.60;99.90;;;;;;5089828;28;20522;-41
2021/10/21 05:24:40;;;;;;;2.92;0.80;;;12.70;99.90;;;;;;5089685;28;20540;-42
2021/10/21 05:27:05;;;;;;;2.88;0.77;;;12.70;99.90;;;;;;5087997;28;20020;-42
2021/10/21 05:29:33;;;;;;;2.33;0.85;;;12.70;99.90;;;;;;5087221;28;20027;-42
2021/10/21 05:31:58;;;;;;;1.65;0.65;;;12.70;99.90;;;;;;5088069;28;20028;-42
2021/10/21 05:34:24;;;;;;;1.65;0.75;;;12.70;99.90;;;;;;5088201;28;20768;-42
2021/10/21 05:36:50;;;;;;;4.38;1.02;;;12.70;99.90;;;;;;5089494;28;20032;-42
2021/10/21 05:39:18;;;;;;;2.85;0.82;;;12.70;99.90;;;;;;5088307;28;20558;-43
2021/10/21 05:41:44;;;;;;;3.15;1.20;;;12.60;99.90;;;;;;5089238;28;20032;-43
2021/10/21 05:44:09;;;;;;;4.10;1.50;;;12.60;99.90;;;;;;5088799;28;20027;-43
2021/10/21 05:46:35;;;;;;;2.53;1.67;;;12.60;99.90;;;;;;5089341;28;20482;-43
2021/10/21 05:49:00;;;;;;;1.90;0.90;;;12.50;99.90;;;;;;5088534;28;20618;-43
2021/10/21 05:51:26;;;;;;;1.00;0.75;;;12.30;99.90;;;;;;5089534;28;20476;-43
2021/10/21 05:53:54;;;;;;;1.00;0.55;;;12.10;99.90;;;;;;5088602;28;20051;-43
2021/10/21 05:56:20;;;;;;;1.23;0.60;;;11.80;99.90;;;;;;5088665;28;20047;-44
2021/10/21 05:58:46;;;;;;;1.13;0.50;;;11.60;99.90;;;;;;5088782;28;20024;-42
2021/10/21 06:01:11;;;;;;;2.00;0.57;;;11.40;99.90;;;;;;5089005;28;20372;-43
2021/10/21 06:03:38;;;;;;;2.30;0.63;;;11.20;99.90;;;;;;5088911;28;20099;-42
2021/10/21 06:06:05;;;;;;;2.15;0.50;;;11.10;99.90;;;;;;5088827;28;20388;-42
2021/10/21 06:08:31;;;;;;;2.55;0.75;;;11.00;99.90;;;;;;5088493;28;20042;-42
2021/10/21 06:10:56;;;;;;;0.88;0.50;;;10.90;99.90;;;;;;5089167;28;20096;-42
2021/10/21 06:13:22;;;;;;;2.33;0.50;;;10.90;99.90;;;;;;5087805;28;20016;-40
2021/10/21 06:15:48;;;;;;;2.20;0.40;;;10.80;99.90;;;;;;5085463;28;20103;-42
2021/10/21 06:18:14;;;;;;;1.52;0.40;;;10.80;99.90;;;;;;5088204;28;20157;-42
2021/10/21 06:20:42;;;;;;;3.13;0.50;;;10.80;99.90;;;;;;5088043;28;20092;-42
2021/10/21 06:23:08;;;;;;;2.50;0.60;;;10.70;99.90;;;;;;5088837;28;20472;-42
2021/10/21 06:25:33;;;;;;;1.10;0.40;;;10.70;99.90;;;;;;5088350;28;20031;-42
2021/10/21 06:28:02;;;;;;;4.20;0.70;;;10.70;99.90;;;;;;5088267;28;20024;-42
2021/10/21 06:30:27;;;;;;;4.90;0.50;;;10.80;99.90;;;;;;5088529;28;20024;-44
2021/10/21 06:32:53;;;;;;;2.50;0.55;;;10.80;99.90;;;;;;5088476;28;20024;-42
2021/10/21 06:35:19;;;;;;;0.93;0.47;;;10.90;99.90;;;;;;5087910;28;20539;-42
2021/10/21 06:37:46;;;;;;;2.40;0.70;;;10.90;99.90;;;;;;5087862;28;20119;-43
2021/10/21 06:40:16;;;;;;;3.75;0.60;;;11.00;99.90;;;;;;5088296;28;20137;-45
2021/10/21 06:42:42;;;;;;;2.75;0.60;;;11.00;99.90;;;;;;5087783;28;20038;-43
2021/10/21 06:45:10;;;;;;;3.08;0.80;;;11.00;99.90;;;;;;5087930;28;20402;-43
2021/10/21 06:47:40;;;;;;;2.92;0.73;;;11.00;99.90;;;;;;5088578;28;20384;-44
2021/10/21 06:50:09;;;;;;;3.05;0.80;;;11.00;99.90;;;;;;5087628;28;20491;-44
2021/10/21 06:52:35;;;;;;;5.47;0.95;;;11.00;99.90;;;;;;5087866;28;20020;-43
2021/10/21 06:55:01;;;;;;;2.30;0.70;;;11.00;99.90;;;;;;5087961;28;20127;-43
2021/10/21 06:57:44;;;;;;;2.45;0.70;;;11.10;99.90;;;;;;5087601;28;20728;-43
2021/10/21 07:00:10;;;;;;;5.43;1.30;;;11.10;99.90;;;;;;5087320;28;20046;-43
2021/10/21 07:02:36;;;;;;;3.65;1.02;;;11.10;99.90;;;;;;5087313;28;20379;-44
2021/10/21 07:05:02;;;;;;;5.40;1.00;;;11.10;99.90;;;;;;5088222;28;20028;-43
2021/10/21 07:07:27;;;;;;;5.07;1.00;;;11.10;99.90;;;;;;5087604;28;20019;-43
2021/10/21 07:09:53;;;;;;;4.50;1.13;;;11.10;99.90;;;;;;5088101;28;20153;-43
2021/10/21 07:12:19;;;;;;;6.57;1.10;;;11.10;99.90;;;;;;5087439;28;20020;-42
2021/10/21 07:14:44;;;;;;;6.07;1.23;;;11.20;99.90;;;;;;5087978;28;20034;-43
2021/10/21 07:17:09;;;;;;;11.40;1.38;;;11.20;99.90;;;;;;5087293;28;20468;-43
2021/10/21 07:19:35;;;;;;;4.15;1.33;;;11.20;99.90;;;;;;5087515;28;20533;-42
2021/10/21 07:22:00;;;;;;;3.40;1.20;;;11.20;99.90;;;;;;5087273;28;20020;-43
2021/10/21 07:24:29;;;;;;;9.45;1.40;;;11.30;99.90;;;;;;5087419;28;20345;-42
2021/10/21 07:26:55;;;;;;;7.50;1.50;;;11.30;99.90;;;;;;5087372;28;20024;-43
2021/10/21 07:29:20;;;;;;;8.40;1.40;;;11.30;99.90;;;;;;5087860;28;20464;-43
2021/10/21 07:31:46;;;;;;;4.72;1.30;;;11.30;99.90;;;;;;5087098;28;20042;-42
2021/10/21 07:34:11;;;;;;;6.57;1.50;;;11.40;99.90;;;;;;5087163;28;20020;-43
2021/10/21 07:36:37;;;;;;;6.50;1.50;;;11.40;99.90;;;;;;5086935;28;20027;-43
2021/10/21 07:39:06;;;;;;;6.22;1.23;;;11.50;99.90;;;;;;5087273;28;20035;-43
2021/10/21 07:41:31;;;;;;;10.70;1.55;;;11.50;99.90;;;;;;5085295;28;20026;-43
2021/10/21 07:43:57;;;;;;;10.45;1.60;;;11.50;99.90;;;;;;5087289;28;20016;-43
2021/10/21 07:46:22;;;;;;;7.72;1.40;;;11.60;99.90;;;;;;5086608;28;20131;-44
2021/10/21 07:48:49;;;;;;;9.30;1.65;;;11.60;99.90;;;;;;5087362;28;20016;-43
2021/10/21 07:51:15;;;;;;;7.95;1.85;;;11.60;99.90;;;;;;5086449;28;20055;-43
2021/10/21 07:53:44;;;;;;;14.30;2.67;;;11.60;99.90;;;;;;5086884;28;20215;-43
2021/10/21 07:56:13;;;;;;;9.05;2.38;;;11.60;99.90;;;;;;5087432;28;20142;-43
2021/10/21 07:58:39;;;;;;;6.13;1.67;;;11.60;99.90;;;;;;5086177;28;20125;-43
2021/10/21 08:01:05;;;;;;;8.13;1.85;;;11.50;99.90;;;;;;5087105;28;20047;-43
2021/10/21 08:03:31;;;;;;;7.68;2.28;;;11.60;99.90;;;;;;5086693;28;20019;-43
2021/10/21 08:05:56;;;;;;;6.22;1.40;;;11.60;99.90;;;;;;5086577;28;20024;-43
2021/10/21 08:08:22;;;;;;;7.20;2.17;;;11.60;99.90;;;;;;5086850;28;20368;-43
2021/10/21 08:10:48;;;;;;;7.53;1.67;;;11.60;99.90;;;;;;5087025;28;20391;-42
2021/10/21 08:13:14;;;;;;;8.02;1.90;;;11.60;99.90;;;;;;5086131;28;20035;-43
2021/10/21 08:15:41;;;;;;;4.88;1.45;;;11.70;99.90;;;;;;5086728;28;20036;-43
2021/10/21 08:18:10;;;;;;;8.98;1.70;;;11.70;99.90;;;;;;5086509;28;20495;-42
2021/10/21 08:20:36;;;;;;;8.00;2.33;;;11.70;99.90;;;;;;5086144;28;20060;-42
2021/10/21 08:23:01;;;;;;;14.63;2.38;;;11.70;99.90;;;;;;5086492;28;20063;-43
2021/10/21 08:25:27;;;;;;;7.85;2.03;;;11.70;99.90;;;;;;5086374;28;20012;-43
2021/10/21 08:27:53;;;;;;;8.35;1.50;;;11.60;99.90;;;;;;5086498;28;20451;-43
2021/10/21 08:30:23;;;;;;;10.55;1.90;;;11.60;99.90;;;;;;5086412;28;20020;-42
2021/10/21 08:32:48;;;;;;;9.98;1.85;;;11.60;99.90;;;;;;5087132;28;20475;-43
2021/10/21 08:35:15;;;;;;;4.82;1.73;;;11.60;99.90;;;;;;5085697;28;20043;-43
2021/10/21 08:37:41;;;;;;;7.88;1.75;;;11.60;99.90;;;;;;5086585;28;20064;-43
2021/10/21 08:40:07;;;;;;;7.10;1.90;;;11.60;99.90;;;;;;5086387;28;20040;-43
2021/10/21 08:42:36;;;;;;;6.45;1.45;;;11.60;99.90;;;;;;5085892;28;20038;-43
2021/10/21 08:45:02;;;;;;;5.80;1.65;;;11.70;99.90;;;;;;5086600;28;20035;-43
2021/10/21 08:47:29;;;;;;;6.60;1.50;;;11.70;99.90;;;;;;5085420;28;20020;-43
2021/10/21 08:49:56;;;;;;;6.57;1.88;;;11.70;99.90;;;;;;5086364;28;20097;-42
2021/10/21 08:52:22;;;;;;;11.25;2.03;;;11.80;99.90;;;;;;5086754;28;20126;-44
2021/10/21 08:54:48;;;;;;;6.03;1.85;;;11.80;99.90;;;;;;5085944;28;20503;-42
2021/10/21 08:57:14;;;;;;;7.43;1.83;;;11.90;99.90;;;;;;5086465;28;20130;-42
2021/10/21 08:59:46;;;;;;;7.47;2.05;;;11.90;99.90;;;;;;5085863;28;20020;-43
2021/10/21 09:02:21;;;;;;;8.40;1.95;;;12.00;99.90;;;;;;5085864;28;20186;-43
2021/10/21 09:05:10;;;;;;;7.57;1.98;;;12.10;99.90;;;;;;5086804;28;20020;-43
2021/10/21 09:10:19;;;;;;;7.65;1.70;;;12.10;99.90;;;;;;5085956;28;20035;-42
2021/10/21 09:12:49;;;;;;;7.30;1.60;;;12.10;99.90;;;;;;5086044;28;20016;-42
2021/10/21 09:15:23;;;;;;;7.28;2.58;;;12.00;99.90;;;;;;5086377;28;20028;-43
2021/10/21 09:17:50;;;;;;;3.63;1.50;;;11.90;99.90;;;;;;5086063;28;20039;-42
2021/10/21 09:20:30;;;;;;;6.38;1.45;;;11.70;99.90;;;;;;5086206;28;20460;-43
2021/10/21 09:23:01;;;;;;;4.88;1.35;;;11.50;99.90;;;;;;5087228;28;20107;-43
2021/10/21 09:25:29;;;;;;;3.25;0.90;;;11.40;99.90;;;;;;5089320;28;20523;-43
2021/10/21 09:27:58;;;;;;;4.80;1.23;;;11.30;99.90;;;;;;5089984;28;20624;-44
2021/10/21 09:30:29;;;;;;;7.50;1.17;;;11.30;99.90;;;;;;5089607;28;20020;-43
2021/10/21 09:33:12;;;;;;;3.63;1.20;;;11.30;99.90;;;;;;5079327;28;20148;-43
2021/10/21 09:35:38;;;;;;;11.48;2.17;;;11.30;99.90;;;;;;5089680;28;20024;-42
2021/10/21 09:38:04;;;;;;;3.10;1.00;;;11.30;99.90;;;;;;5089164;28;20669;-42
2021/10/21 09:40:35;;;;;;;5.05;1.40;;;11.30;99.90;;;;;;5089303;28;20475;-42
2021/10/21 09:43:05;;;;;;;5.03;1.42;;;11.30;99.90;;;;;;5089635;28;20463;-42
2021/10/21 09:45:40;;;;;;;7.15;1.60;;;11.30;99.90;;;;;;5089184;28;20365;-43
2021/10/21 09:48:10;;;;;;;3.60;1.20;;;11.30;99.90;;;;;;5089506;28;20111;-42
2021/10/21 09:50:42;;;;;;;5.07;1.27;;;11.40;99.90;;;;;;5089696;28;20023;-42
2021/10/21 09:53:32;;;;;;;4.25;1.20;;;11.40;99.90;;;;;;5086202;28;20120;-42
2021/10/21 09:56:00;;;;;;;9.90;1.75;;;11.30;99.90;;;;;;5089620;28;20028;-43
2021/10/21 09:58:42;;;;;;;6.00;1.20;;;11.30;99.90;;;;;;5088551;28;20058;-43
2021/10/21 10:01:15;;;;;;;6.03;1.25;;;11.30;99.90;;;;;;5089047;28;20024;-42
2021/10/21 10:03:43;;;;;;;8.85;1.35;;;11.30;99.90;;;;;;5089650;28;20396;-43
2021/10/21 10:06:15;;;;;;;5.75;1.50;;;11.30;99.90;;;;;;5088740;28;20040;-43
2021/10/21 10:08:40;;;;;;;6.88;1.77;;;11.20;99.90;;;;;;5085928;28;20027;-43
2021/10/21 10:11:19;;;;;;;6.10;1.30;;;11.20;99.90;;;;;;5088323;28;20040;-43
2021/10/21 10:13:52;;;;;;;5.70;1.33;;;11.20;99.90;;;;;;5088542;28;20109;-43
2021/10/21 10:16:18;;;;;;;4.10;1.30;;;11.20;99.90;;;;;;5088995;28;20569;-43
2021/10/21 10:18:46;;;;;;;6.78;1.20;;;11.30;99.90;;;;;;5088638;28;20035;-43
2021/10/21 10:21:37;;;;;;;4.63;1.33;;;11.50;99.90;;;;;;5088655;28;20035;-43
2021/10/21 10:24:16;;;;;;;5.20;1.13;;;11.60;99.90;;;;;;5089466;28;20043;-43
2021/10/21 10:26:58;;;;;;;6.50;1.58;;;11.80;99.90;;;;;;5087954;28;20130;-45
2021/10/21 10:29:36;;;;;;;4.05;1.67;;;12.00;99.90;;;;;;5085900;28;20039;-41
2021/10/21 10:32:06;;;;;;;5.88;1.35;;;12.20;99.90;;;;;;5089165;28;20120;-42
2021/10/21 10:34:35;;;;;;;6.20;1.55;;;12.20;99.90;;;;;;5086604;28;20020;-41
2021/10/21 10:37:12;;;;;;;13.60;2.10;;;12.20;99.90;;;;;;5088091;28;20089;-43
2021/10/21 10:39:59;;;;;;;8.98;2.17;;;12.20;99.90;;;;;;5088189;28;20027;-44
2021/10/21 10:42:37;;;;;;;6.03;1.30;;;12.30;99.90;;;;;;5088127;28;20028;-43
2021/10/21 10:45:05;;;;;;;5.38;1.20;;;12.40;99.90;;;;;;5088870;28;20114;-43
2021/10/21 10:47:48;;;;;;;7.07;1.35;;;12.40;99.90;;;;;;5087677;28;20024;-43
2021/10/21 10:50:16;;;;;;;6.32;1.65;;;12.50;99.90;;;;;;5086561;28;20031;-43
2021/10/21 10:52:51;;;;;;;4.97;1.58;;;12.50;99.90;;;;;;5088109;28;20064;-43
2021/10/21 10:55:25;;;;;;;5.65;1.05;;;12.60;99.90;;;;;;5085410;28;20048;-43
2021/10/21 10:57:53;;;;;;;6.40;1.30;;;12.50;99.90;;;;;;5088126;28;20123;-43
2021/10/21 11:00:51;;;;;;;6.70;1.55;;;12.50;99.90;;;;;;5083925;28;20032;-43
2021/10/21 11:03:35;;;;;;;7.40;1.30;;;12.50;99.90;;;;;;5087740;28;20043;-43
2021/10/21 11:06:06;;;;;;;5.95;1.50;;;12.50;99.90;;;;;;5077944;28;20056;-44
2021/10/21 11:08:47;;;;;;;6.30;1.40;;;12.50;99.90;;;;;;5087155;28;20601;-42
2021/10/21 11:11:43;;;;;;;7.88;1.98;;;12.50;99.90;;;;;;5077418;28;20036;-42
2021/10/21 11:14:10;;;;;;;8.30;1.83;;;12.60;99.90;;;;;;5087494;28;20464;-42
2021/10/21 11:16:44;;;;;;;7.18;1.20;;;12.70;99.90;;;;;;5087472;28;20035;-43
2021/10/21 11:19:11;;;;;;;6.68;1.50;;;12.60;99.90;;;;;;5087538;28;20031;-43
2021/10/21 11:21:57;;;;;;;8.00;1.55;;;12.60;99.90;;;;;;5087518;28;20016;-43
2021/10/21 11:27:11;;;;;;;4.80;1.48;;;12.40;99.90;;;;;;5087598;28;20036;-42
2021/10/21 11:29:40;;;;;;;4.53;1.23;;;12.40;99.90;;;;;;5086754;28;20044;-42
2021/10/21 11:32:08;;;;;;;5.50;1.10;;;12.40;99.90;;;;;;5087649;28;20031;-42
2021/10/21 11:34:33;;;;;;;8.63;2.38;;;12.40;99.90;;;;;;5086771;28;20471;-42
2021/10/21 11:36:59;;;;;;;4.13;1.17;;;12.50;99.90;;;;;;5086828;28;20044;-43
2021/10/21 11:39:39;;;;;;;3.47;1.20;;;12.50;99.90;;;;;;5087089;28;20016;-43
2021/10/21 11:42:10;;;;;;;6.55;1.30;;;12.50;99.90;;;;;;5087438;28;20036;-44
2021/10/21 11:44:39;;;;;;;6.03;1.48;;;12.60;99.90;;;;;;5086779;28;20015;-43
2021/10/21 11:47:07;;;;;;;5.60;1.00;;;12.70;99.90;;;;;;5086939;28;20067;-43
2021/10/21 11:49:39;;;;;;;6.50;1.67;;;12.80;99.90;;;;;;5087453;28;20028;-43
2021/10/21 11:52:07;;;;;;;1.98;0.30;;;13.00;99.90;;;;;;5083089;28;20020;-43
2021/10/21 11:54:33;;;;;;;0.70;0.47;;;12.80;99.90;;;;;;5086883;28;20051;-43
2021/10/21 11:57:00;;;;;;;2.55;0.43;;;12.20;99.90;;;;;;5086996;28;20081;-43
2021/10/21 11:59:41;;;;;;;2.58;0.30;;;11.70;99.90;;;;;;5086899;28;20700;-43
2021/10/21 12:02:14;;;;;;;2.30;0.55;;;11.10;99.90;;;;;;5087039;28;20056;-43
2021/10/21 12:04:42;;;;;;;1.73;0.50;;;10.80;99.90;;;;;;5086493;28;20119;-43
2021/10/21 12:07:08;;;;;;;1.17;0.50;;;10.60;99.90;;;;;;5086876;28;20031;-42
2021/10/21 12:09:34;;;;;;;1.70;0.50;;;10.50;99.90;;;;;;5086714;28;20016;-44
2021/10/21 12:12:06;;;;;;;1.00;0.40;;;10.30;99.90;;;;;;5086442;28;20471;-42
2021/10/21 12:14:33;;;;;;;1.35;0.50;;;10.20;99.90;;;;;;5086836;28;20103;-43
2021/10/21 12:16:59;;;;;;;2.40;0.60;;;10.10;99.90;;;;;;5086277;28;20154;-43
2021/10/21 12:19:26;;;;;;;2.72;0.90;;;10.00;99.90;;;;;;5086595;28;20559;-43
2021/10/21 12:22:05;;;;;;;3.40;0.65;;;10.00;99.90;;;;;;5086202;28;20028;-43
2021/10/21 12:24:32;;;;;;;3.28;1.45;;;10.00;99.90;;;;;;5086821;28;20128;-44
2021/10/21 12:27:00;;;;;;;1.95;0.90;;;10.10;99.90;;;;;;5085769;28;20492;-43
2021/10/21 12:29:42;;;;;;;1.48;0.73;;;10.10;99.90;;;;;;5086656;28;20111;-42
2021/10/21 12:32:18;;;;;;;1.67;0.40;;;10.20;99.90;;;;;;5086368;28;20028;-41
2021/10/21 12:34:45;;;;;;;2.33;0.52;;;10.20;99.90;;;;;;5085734;28;20024;-42
2021/10/21 12:37:22;;;;;;;0.80;0.43;;;10.20;99.90;;;;;;5086858;28;20077;-41
2021/10/21 12:39:48;;;;;;;2.10;0.57;;;10.20;99.90;;;;;;5086117;28;20410;-42
2021/10/21 12:42:24;;;;;;;2.35;0.60;;;10.20;99.90;;;;;;5086396;28;20023;-43
2021/10/21 12:44:58;;;;;;;1.17;0.60;;;10.30;99.90;;;;;;5087112;28;20062;-43
2021/10/21 12:47:27;;;;;;;3.65;0.70;;;10.40;99.90;;;;;;5086072;28;20096;-43
2021/10/21 12:49:58;;;;;;;1.42;0.50;;;10.50;99.90;;;;;;5086392;28;20031;-42
2021/10/21 12:52:28;;;;;;;2.42;0.60;;;10.60;99.90;;;;;;5086200;28;20538;-42
2021/10/21 12:55:14;;;;;;;2.83;0.85;;;10.60;99.90;;;;;;5085722;28;20063;-42
2021/10/21 12:57:54;;;;;;;1.88;0.65;;;10.60;99.90;;;;;;5086380;28;20043;-43